Time;durP1;ratioP1;P1;durP2;ratioP2;P2;SDS_P1;SDS_P2;PMS_P1;PMS_P2;Temp;Humidity;BMP_temperature;BMP_pressure;BME280_temperature;BME280_humidity;BME280_pressure;Samples;Min_cycle;Max_cycle;Signal;HPM_P1;HPM_P2
2021/11/09 00:02:27;;;;;;;13.00;8.45;;;;;;;;;;4993075;28;20303;-76
2021/11/09 00:04:55;;;;;;;14.63;7.22;;;;;;;;;;4994478;28;20230;-78
2021/11/09 00:09:57;;;;;;;20.98;8.05;;;;;;;;;;4996213;28;20301;-77
2021/11/09 00:12:26;;;;;;;12.70;7.35;;;;;;;;;;4995501;28;20636;-77
2021/11/09 00:14:52;;;;;;;15.93;7.30;;;;;;;;;;4996245;28;20603;-77
2021/11/09 00:17:18;;;;;;;17.20;8.25;;;;;;;;;;4995137;28;20187;-79
2021/11/09 00:19:44;;;;;;;14.27;7.25;;;;;;;;;;4996083;28;20195;-77
2021/11/09 00:22:10;;;;;;;17.63;6.95;;;;;;;;;;4996433;28;20190;-78
2021/11/09 00:24:36;;;;;;;22.63;8.50;;;;;;;;;;4996236;28;20176;-79
2021/11/09 00:27:03;;;;;;;14.82;6.85;;;;;;;;;;4978680;28;20645;-76
2021/11/09 00:29:29;;;;;;;13.75;6.75;;;;;;;;;;4995845;28;20208;-79
2021/11/09 00:31:55;;;;;;;18.52;7.50;;;;;;;;;;4996275;28;20207;-77
2021/11/09 00:34:21;;;;;;;14.80;7.88;;;;;;;;;;4996204;28;20180;-78
2021/11/09 00:36:47;;;;;;;17.80;7.35;;;;;;;;;;4996162;28;20179;-79
2021/11/09 00:39:13;;;;;;;17.03;8.60;;;;;;;;;;4994497;28;20622;-77
2021/11/09 00:41:40;;;;;;;18.00;7.20;;;;;;;;;;4994849;28;20450;-78
2021/11/09 00:44:06;;;;;;;24.67;8.52;;;;;;;;;;4996168;28;20175;-78
2021/11/09 00:46:32;;;;;;;22.30;7.80;;;;;;;;;;4996002;28;20203;-77
2021/11/09 00:48:58;;;;;;;22.30;7.43;;;;;;;;;;4995900;28;20306;-76
2021/11/09 00:51:24;;;;;;;12.93;7.20;;;;;;;;;;4995361;28;20434;-77
2021/11/09 00:53:50;;;;;;;21.33;7.20;;;;;;;;;;4995794;28;20442;-78
2021/11/09 00:56:16;;;;;;;18.63;7.53;;;;;;;;;;4995770;28;20190;-79
2021/11/09 00:58:43;;;;;;;10.90;7.78;;;;;;;;;;4995701;28;20179;-77
2021/11/09 01:01:08;;;;;;;15.85;7.13;;;;;;;;;;4995090;28;20345;-80
2021/11/09 01:03:35;;;;;;;14.70;7.70;;;;;;;;;;4995647;28;20275;-75
2021/11/09 01:06:01;;;;;;;14.10;7.13;;;;;;;;;;4994224;28;20470;-77
2021/11/09 01:08:27;;;;;;;19.38;7.97;;;;;;;;;;4995500;28;20210;-79
2021/11/09 01:10:54;;;;;;;15.85;7.40;;;;;;;;;;4995056;28;20187;-78
2021/11/09 01:13:21;;;;;;;14.85;7.72;;;;;;;;;;4994002;28;20648;-80
2021/11/09 01:15:49;;;;;;;20.55;7.70;;;;;;;;;;4994619;28;20183;-78
2021/11/09 01:18:42;;;;;;;13.13;6.45;;;;;;;;;;4995314;28;20206;-80
2021/11/09 01:21:12;;;;;;;17.75;8.43;;;;;;;;;;4992862;28;20235;-80
2021/11/09 01:23:38;;;;;;;13.98;6.57;;;;;;;;;;4994088;28;20199;-79
2021/11/09 01:26:05;;;;;;;15.77;7.70;;;;;;;;;;4995219;28;20207;-80
2021/11/09 01:28:31;;;;;;;17.67;7.57;;;;;;;;;;4995327;28;20178;-79
2021/11/09 01:30:59;;;;;;;23.58;9.23;;;;;;;;;;4994929;28;20568;-80
2021/11/09 01:33:25;;;;;;;15.00;6.97;;;;;;;;;;4994927;28;20569;-81
2021/11/09 01:35:52;;;;;;;21.17;8.65;;;;;;;;;;4995066;28;20174;-78
2021/11/09 01:38:18;;;;;;;23.67;8.27;;;;;;;;;;4993750;28;20655;-81
2021/11/09 01:40:44;;;;;;;22.17;7.03;;;;;;;;;;4994541;28;20207;-79
2021/11/09 01:43:11;;;;;;;16.70;6.95;;;;;;;;;;4993706;28;20180;-80
2021/11/09 01:45:38;;;;;;;16.50;6.70;;;;;;;;;;4994905;28;20207;-80
2021/11/09 01:48:04;;;;;;;19.80;9.07;;;;;;;;;;4995076;28;20271;-79
2021/11/09 01:50:33;;;;;;;19.42;8.23;;;;;;;;;;4994545;28;20199;-78
2021/11/09 01:52:59;;;;;;;21.25;6.32;;;;;;;;;;4994754;28;20190;-80
2021/11/09 01:55:25;;;;;;;18.70;6.25;;;;;;;;;;4994757;28;20180;-80
2021/11/09 01:57:57;;;;;;;20.15;8.25;;;;;;;;;;4994624;28;20233;-79
2021/11/09 02:00:26;;;;;;;16.10;7.32;;;;;;;;;;4994122;28;20199;-80
2021/11/09 02:02:53;;;;;;;16.90;6.63;;;;;;;;;;4994529;28;20569;-76
2021/11/09 02:05:19;;;;;;;18.92;7.28;;;;;;;;;;4993294;28;20210;-79
2021/11/09 02:07:47;;;;;;;22.05;7.22;;;;;;;;;;4992968;28;20211;-77
2021/11/09 02:10:14;;;;;;;18.00;6.82;;;;;;;;;;4993889;28;20205;-79
2021/11/09 02:12:41;;;;;;;14.25;6.78;;;;;;;;;;4994293;28;20175;-81
2021/11/09 02:15:07;;;;;;;17.65;6.53;;;;;;;;;;4992889;28;20215;-77
2021/11/09 02:17:35;;;;;;;16.92;7.60;;;;;;;;;;4994132;28;20222;-79
2021/11/09 02:20:02;;;;;;;17.25;6.82;;;;;;;;;;4993883;28;20199;-79
2021/11/09 02:22:28;;;;;;;13.48;6.25;;;;;;;;;;4994194;28;20272;-78
2021/11/09 02:24:54;;;;;;;11.25;5.93;;;;;;;;;;4992815;28;20194;-77
2021/11/09 02:27:20;;;;;;;18.92;7.15;;;;;;;;;;4993754;28;20199;-76
2021/11/09 02:29:46;;;;;;;25.23;6.63;;;;;;;;;;4993290;28;20198;-79
2021/11/09 02:32:12;;;;;;;16.33;6.78;;;;;;;;;;4993979;28;20190;-78
2021/11/09 02:34:38;;;;;;;19.58;7.88;;;;;;;;;;4993933;28;20186;-78
2021/11/09 02:37:04;;;;;;;16.10;6.80;;;;;;;;;;4992755;28;20213;-78
2021/11/09 02:39:30;;;;;;;14.68;6.05;;;;;;;;;;4993570;28;20182;-78
2021/11/09 02:41:56;;;;;;;16.30;7.40;;;;;;;;;;4992553;28;20179;-77
2021/11/09 02:44:26;;;;;;;15.60;7.00;;;;;;;;;;4994122;28;20548;-77
2021/11/09 02:46:58;;;;;;;17.50;6.45;;;;;;;;;;4993925;28;20829;-77
2021/11/09 02:49:29;;;;;;;17.73;7.43;;;;;;;;;;4993521;28;20233;-76
2021/11/09 02:51:59;;;;;;;16.17;7.15;;;;;;;;;;4993647;28;20274;-78
2021/11/09 02:54:49;;;;;;;14.75;6.40;;;;;;;;;;4992810;28;20185;-77
2021/11/09 02:57:29;;;;;;;19.00;7.05;;;;;;;;;;4993449;28;20182;-78
2021/11/09 03:00:18;;;;;;;14.18;6.43;;;;;;;;;;4993359;28;20198;-78
2021/11/09 03:02:48;;;;;;;19.50;6.75;;;;;;;;;;4993781;28;20183;-79
2021/11/09 03:07:57;;;;;;;11.68;6.30;;;;;;;;;;4993575;28;20186;-76
2021/11/09 03:10:38;;;;;;;22.27;6.45;;;;;;;;;;4992087;28;20194;-78
2021/11/09 03:13:05;;;;;;;13.15;6.15;;;;;;;;;;4993670;28;20194;-77
2021/11/09 03:15:33;;;;;;;18.23;6.15;;;;;;;;;;4993446;28;20172;-78
2021/11/09 03:18:09;;;;;;;25.67;6.50;;;;;;;;;;4993502;28;20265;-76
2021/11/09 03:45:08;;;;;;;19.95;6.95;;;;;;;;;;4997333;28;20236;-76
2021/11/09 03:47:42;;;;;;;13.90;5.97;;;;;;;;;;4995994;28;20194;-78
2021/11/09 03:50:12;;;;;;;21.77;7.00;;;;;;;;;;4996587;28;20194;-76
2021/11/09 03:52:47;;;;;;;15.82;6.32;;;;;;;;;;4997046;28;20553;-78
2021/11/09 03:55:19;;;;;;;17.95;6.75;;;;;;;;;;4997093;28;20302;-76
2021/11/09 03:58:02;;;;;;;15.68;7.00;;;;;;;;;;4997014;28;20189;-76
2021/11/09 04:00:32;;;;;;;14.35;6.50;;;;;;;;;;4981379;28;20243;-78
2021/11/09 04:03:03;;;;;;;17.23;7.53;;;;;;;;;;4996771;28;20187;-76
2021/11/09 04:05:36;;;;;;;18.13;7.05;;;;;;;;;;4996412;28;20211;-77
2021/11/09 04:08:14;;;;;;;13.18;6.47;;;;;;;;;;4996920;28;20200;-77
2021/11/09 04:11:02;;;;;;;15.45;6.05;;;;;;;;;;4996103;28;20234;-77
2021/11/09 04:13:36;;;;;;;18.30;6.65;;;;;;;;;;4996622;28;20167;-75
2021/11/09 04:31:51;;;;;;;18.25;6.88;;;;;;;;;;4996281;28;20206;-78
2021/11/09 04:38:05;;;;;;;22.05;6.47;;;;;;;;;;4996202;28;20190;-78
2021/11/09 05:11:25;;;;;;;19.77;7.25;;;;;;;;;;4995276;28;20210;-78
2021/11/09 05:13:52;;;;;;;15.52;5.85;;;;;;;;;;4995390;28;20180;-78
2021/11/09 05:16:18;;;;;;;13.23;5.25;;;;;;;;;;4995337;28;20652;-79
2021/11/09 05:18:44;;;;;;;13.10;6.00;;;;;;;;;;4995254;28;20595;-77
2021/11/09 05:21:10;;;;;;;19.42;5.80;;;;;;;;;;4994501;28;20309;-79
2021/11/09 05:23:36;;;;;;;8.38;5.03;;;;;;;;;;4995092;28;20182;-78
2021/11/09 05:26:02;;;;;;;16.73;6.15;;;;;;;;;;4995089;28;20218;-78
2021/11/09 05:28:28;;;;;;;15.23;5.00;;;;;;;;;;4995020;28;20257;-77
2021/11/09 05:30:54;;;;;;;19.13;5.60;;;;;;;;;;4994994;28;20194;-80
2021/11/09 05:33:22;;;;;;;24.52;5.50;;;;;;;;;;4993732;28;20179;-77
2021/11/09 05:35:50;;;;;;;10.63;4.60;;;;;;;;;;4994915;28;20236;-79
2021/11/09 05:38:18;;;;;;;11.38;5.82;;;;;;;;;;4995062;28;20175;-78
2021/11/09 05:40:52;;;;;;;22.88;5.50;;;;;;;;;;4993567;28;20258;-79
2021/11/09 05:43:18;;;;;;;17.73;5.85;;;;;;;;;;4994875;28;20655;-79
2021/11/09 05:45:44;;;;;;;22.77;8.38;;;;;;;;;;4994857;28;20303;-79
2021/11/09 05:48:11;;;;;;;17.67;6.23;;;;;;;;;;4994855;28;20212;-78
2021/11/09 05:50:37;;;;;;;10.48;5.38;;;;;;;;;;4994362;28;20430;-78
2021/11/09 05:53:03;;;;;;;17.52;5.78;;;;;;;;;;4994580;28;20182;-76
2021/11/09 05:55:30;;;;;;;19.20;6.40;;;;;;;;;;4994549;28;20186;-76
2021/11/09 05:57:56;;;;;;;20.63;6.15;;;;;;;;;;4993497;28;20206;-77
2021/11/09 06:00:22;;;;;;;16.33;6.28;;;;;;;;;;4994311;28;20285;-78
2021/11/09 06:02:49;;;;;;;14.75;5.80;;;;;;;;;;4994239;28;20191;-78
2021/11/09 06:05:15;;;;;;;10.70;5.47;;;;;;;;;;4993204;28;20205;-79
2021/11/09 06:07:41;;;;;;;19.90;6.35;;;;;;;;;;4994351;28;20183;-77
2021/11/09 06:10:08;;;;;;;23.27;5.75;;;;;;;;;;4994040;28;20282;-78
2021/11/09 06:12:34;;;;;;;14.13;6.07;;;;;;;;;;4994420;28;20347;-78
2021/11/09 06:15:00;;;;;;;12.57;6.38;;;;;;;;;;4994319;28;20296;-77
2021/11/09 06:17:26;;;;;;;15.60;6.13;;;;;;;;;;4994155;28;20251;-79
2021/11/09 06:19:52;;;;;;;15.30;6.60;;;;;;;;;;4993576;28;20192;-76
2021/11/09 06:22:19;;;;;;;11.65;5.55;;;;;;;;;;4994026;28;20258;-76
2021/11/09 06:24:45;;;;;;;11.88;5.72;;;;;;;;;;4994126;28;20265;-79
2021/11/09 06:27:11;;;;;;;21.90;6.22;;;;;;;;;;4993904;28;20215;-76
2021/11/09 06:29:37;;;;;;;8.77;5.80;;;;;;;;;;4992294;28;20202;-78
2021/11/09 06:32:03;;;;;;;11.20;5.70;;;;;;;;;;4994269;28;20183;-77
2021/11/09 06:34:30;;;;;;;13.13;5.60;;;;;;;;;;4992745;28;20187;-76
2021/11/09 06:36:56;;;;;;;13.05;5.75;;;;;;;;;;4992870;28;20543;-79
2021/11/09 06:39:22;;;;;;;19.80;6.53;;;;;;;;;;4993607;28;20644;-80
2021/11/09 06:41:48;;;;;;;18.25;6.43;;;;;;;;;;4993931;28;20651;-77
2021/11/09 06:44:14;;;;;;;19.08;6.60;;;;;;;;;;4993937;28;20186;-79
2021/11/09 06:46:41;;;;;;;16.48;7.40;;;;;;;;;;4993962;28;20550;-77
2021/11/09 06:49:08;;;;;;;16.48;5.40;;;;;;;;;;4993960;28;20175;-77
2021/11/09 06:51:34;;;;;;;13.55;6.40;;;;;;;;;;4992217;28;20284;-77
2021/11/09 06:54:01;;;;;;;11.02;5.72;;;;;;;;;;4993943;28;20173;-77
2021/11/09 06:56:27;;;;;;;11.50;5.97;;;;;;;;;;4994064;28;20200;-81
2021/11/09 06:58:53;;;;;;;15.90;6.53;;;;;;;;;;4993993;28;20617;-80
2021/11/09 07:01:21;;;;;;;18.05;5.82;;;;;;;;;;4993405;28;20206;-78
2021/11/09 07:03:47;;;;;;;13.48;5.70;;;;;;;;;;4993676;28;20186;-78
2021/11/09 07:06:13;;;;;;;15.40;6.23;;;;;;;;;;4993764;28;20290;-79
2021/11/09 07:08:39;;;;;;;13.30;6.88;;;;;;;;;;4993616;28;20421;-79
2021/11/09 07:11:05;;;;;;;16.52;8.10;;;;;;;;;;4991959;28;20204;-77
2021/11/09 07:13:31;;;;;;;16.05;7.55;;;;;;;;;;4993703;28;20202;-77
2021/11/09 07:15:57;;;;;;;17.70;5.88;;;;;;;;;;4997000;28;20236;-77
2021/11/09 07:18:23;;;;;;;17.13;5.88;;;;;;;;;;4997290;28;20183;-78
2021/11/09 07:20:50;;;;;;;14.88;7.00;;;;;;;;;;4997026;28;20226;-80
2021/11/09 07:23:16;;;;;;;16.65;7.47;;;;;;;;;;4997499;28;20233;-80
2021/11/09 07:25:43;;;;;;;19.77;9.05;;;;;;;;;;4997294;28;20202;-78
2021/11/09 07:28:09;;;;;;;15.88;7.50;;;;;;;;;;4997227;28;20172;-78
2021/11/09 07:30:53;;;;;;;22.80;6.75;;;;;;;;;;4997053;28;20211;-77
2021/11/09 07:33:19;;;;;;;16.98;7.45;;;;;;;;;;4997464;28;20167;-79
2021/11/09 07:35:45;;;;;;;17.48;7.50;;;;;;;;;;4997209;28;20543;-79
2021/11/09 07:38:12;;;;;;;23.35;7.53;;;;;;;;;;4997137;28;20179;-78
2021/11/09 07:40:38;;;;;;;20.00;8.63;;;;;;;;;;4995591;28;20254;-78
2021/11/09 07:43:04;;;;;;;18.88;8.27;;;;;;;;;;4997292;28;20183;-81
2021/11/09 07:45:31;;;;;;;20.92;7.93;;;;;;;;;;4997207;28;20227;-79
2021/11/09 07:47:58;;;;;;;15.48;7.50;;;;;;;;;;4997313;28;20252;-79
2021/11/09 07:50:25;;;;;;;15.55;6.70;;;;;;;;;;4995341;28;20622;-81
2021/11/09 07:52:56;;;;;;;14.93;8.40;;;;;;;;;;4995830;28;20542;-78
2021/11/09 07:55:23;;;;;;;21.33;7.15;;;;;;;;;;4996904;28;20176;-79
2021/11/09 07:57:53;;;;;;;21.08;7.47;;;;;;;;;;4996904;28;20203;-77
2021/11/09 08:00:21;;;;;;;14.05;7.50;;;;;;;;;;4996282;28;20207;-80
2021/11/09 08:03:10;;;;;;;18.15;7.22;;;;;;;;;;4995490;28;20210;-78
2021/11/09 08:08:14;;;;;;;19.67;9.70;;;;;;;;;;4997038;28;20167;-80
2021/11/09 08:10:40;;;;;;;25.50;10.40;;;;;;;;;;4996308;28;20195;-77
2021/11/09 08:13:06;;;;;;;23.65;8.93;;;;;;;;;;4996604;28;20176;-78
2021/11/09 08:15:33;;;;;;;22.92;7.65;;;;;;;;;;4995467;28;20527;-80
2021/11/09 08:17:59;;;;;;;20.00;7.38;;;;;;;;;;4996694;28;20184;-81
2021/11/09 08:20:25;;;;;;;15.90;7.55;;;;;;;;;;4995868;28;20729;-79
2021/11/09 08:22:51;;;;;;;24.73;8.73;;;;;;;;;;4996317;28;20185;-79
2021/11/09 08:25:19;;;;;;;19.73;7.40;;;;;;;;;;4996139;28;20252;-79
2021/11/09 08:27:45;;;;;;;17.10;9.48;;;;;;;;;;4996385;28;20172;-80
2021/11/09 08:30:11;;;;;;;18.15;7.88;;;;;;;;;;4996040;28;20197;-79
2021/11/09 08:32:37;;;;;;;18.42;9.02;;;;;;;;;;4996130;28;20172;-79
2021/11/09 08:35:04;;;;;;;19.55;9.13;;;;;;;;;;4995145;28;20176;-79
2021/11/09 08:37:32;;;;;;;20.05;7.82;;;;;;;;;;4996193;28;20175;-78
2021/11/09 08:40:00;;;;;;;18.40;6.90;;;;;;;;;;4995746;28;20563;-80
2021/11/09 08:42:34;;;;;;;15.40;6.70;;;;;;;;;;4996092;28;20513;-80
2021/11/09 08:45:15;;;;;;;13.13;6.25;;;;;;;;;;4996144;28;20172;-80
2021/11/09 08:47:47;;;;;;;19.02;6.35;;;;;;;;;;4996072;28;20280;-79
2021/11/09 08:50:13;;;;;;;9.48;5.80;;;;;;;;;;4994314;28;20297;-78
2021/11/09 08:52:40;;;;;;;15.75;6.72;;;;;;;;;;4995909;28;20200;-76
2021/11/09 08:55:34;;;;;;;14.10;6.03;;;;;;;;;;4995005;28;20215;-80
2021/11/09 09:06:03;;;;;;;11.65;5.53;;;;;;;;;;4979922;28;20204;-80
2021/11/09 09:08:30;;;;;;;24.40;6.30;;;;;;;;;;4995297;28;20189;-77
2021/11/09 09:10:56;;;;;;;12.52;5.53;;;;;;;;;;4994969;28;20518;-78
2021/11/09 09:13:22;;;;;;;10.48;5.53;;;;;;;;;;4994217;28;20238;-80
2021/11/09 09:15:48;;;;;;;13.02;4.75;;;;;;;;;;4995422;28;20183;-79
2021/11/09 09:18:17;;;;;;;11.52;5.75;;;;;;;;;;4995461;28;20207;-77
2021/11/09 09:20:51;;;;;;;9.77;4.80;;;;;;;;;;4993627;28;20628;-79
2021/11/09 09:23:36;;;;;;;9.30;5.07;;;;;;;;;;4995341;28;20262;-76
2021/11/09 09:26:12;;;;;;;11.88;4.60;;;;;;;;;;4995224;28;20203;-77
2021/11/09 09:29:27;;;;;;;9.00;4.13;;;;;;;;;;4993908;28;20179;-77
2021/11/09 09:55:51;;;;;;;11.83;4.27;;;;;;;;;;4994921;28;20391;-77
2021/11/09 09:58:17;;;;;;;10.10;3.50;;;;;;;;;;4994779;28;20403;-77
2021/11/09 10:00:46;;;;;;;6.50;2.97;;;;;;;;;;4993184;28;20449;-77
2021/11/09 10:03:12;;;;;;;6.10;3.57;;;;;;;;;;4994662;28;20766;-77
2021/11/09 10:05:40;;;;;;;10.13;5.33;;;;;;;;;;4994654;28;20467;-79
2021/11/09 10:08:17;;;;;;;9.77;3.30;;;;;;;;;;4994820;28;20502;-77
2021/11/09 10:10:44;;;;;;;8.17;3.57;;;;;;;;;;4994328;28;20454;-76
2021/11/09 10:13:17;;;;;;;10.80;3.33;;;;;;;;;;4994663;28;20946;-77
2021/11/09 10:15:47;;;;;;;6.63;3.10;;;;;;;;;;4993194;28;20411;-76
2021/11/09 10:18:15;;;;;;;5.47;2.70;;;;;;;;;;4994600;28;20418;-77
2021/11/09 10:20:41;;;;;;;4.50;3.00;;;;;;;;;;4993904;28;20449;-77
2021/11/09 10:23:09;;;;;;;7.13;3.30;;;;;;;;;;4994216;28;20439;-76
2021/11/09 10:25:36;;;;;;;7.07;2.83;;;;;;;;;;4993899;28;20524;-76
2021/11/09 10:28:04;;;;;;;9.53;3.40;;;;;;;;;;4994037;28;20413;-79
2021/11/09 10:30:34;;;;;;;8.00;3.77;;;;;;;;;;4993573;28;20921;-76
2021/11/09 10:33:00;;;;;;;5.80;3.13;;;;;;;;;;4992905;28;20418;-78
2021/11/09 10:35:27;;;;;;;10.77;3.53;;;;;;;;;;4994023;28;20412;-79
2021/11/09 10:37:54;;;;;;;6.43;2.77;;;;;;;;;;4994131;28;20778;-78
2021/11/09 10:40:22;;;;;;;10.20;5.27;;;;;;;;;;4992474;28;20437;-77
2021/11/09 10:42:50;;;;;;;9.70;4.50;;;;;;;;;;4994170;28;20415;-77
2021/11/09 10:45:21;;;;;;;10.67;4.83;;;;;;;;;;4994008;28;20406;-78
2021/11/09 10:47:49;;;;;;;9.03;4.77;;;;;;;;;;4992447;28;20473;-77
2021/11/09 10:50:43;;;;;;;8.20;4.77;;;;;;;;;;4992660;28;20422;-78
2021/11/09 10:53:16;;;;;;;6.27;3.90;;;;;;;;;;4992450;28;20419;-77
2021/11/09 11:06:28;;;;;;;9.70;3.57;;;;;;;;;;4993687;28;20794;-79
2021/11/09 11:08:55;;;;;;;7.20;3.47;;;;;;;;;;4993765;28;20411;-75
2021/11/09 11:11:22;;;;;;;10.30;3.53;;;;;;;;;;4993167;28;20430;-77
2021/11/09 11:13:53;;;;;;;5.60;3.10;;;;;;;;;;4993514;28;20481;-78
2021/11/09 11:16:20;;;;;;;8.73;3.90;;;;;;;;;;4993613;28;20409;-80
2021/11/09 11:18:55;;;;;;;6.67;3.37;;;;;;;;;;4992427;28;20456;-80
2021/11/09 11:21:22;;;;;;;9.20;3.53;;;;;;;;;;4993099;28;20496;-78
2021/11/09 11:23:49;;;;;;;4.93;2.90;;;;;;;;;;4993455;28;20836;-78
2021/11/09 11:26:15;;;;;;;5.30;2.57;;;;;;;;;;4993428;28;20433;-80
2021/11/09 11:28:44;;;;;;;6.20;2.80;;;;;;;;;;4992176;28;20407;-79
2021/11/09 11:31:10;;;;;;;6.83;2.07;;;;;;;;;;4993017;28;20525;-81
2021/11/09 11:33:37;;;;;;;7.03;2.20;;;;;;;;;;4992123;28;20424;-78
2021/11/09 11:36:03;;;;;;;4.17;2.10;;;;;;;;;;4993278;28;20415;-78
2021/11/09 11:38:30;;;;;;;6.70;2.73;;;;;;;;;;4992182;28;20892;-79
2021/11/09 11:40:57;;;;;;;5.33;2.07;;;;;;;;;;4991904;28;20856;-81
2021/11/09 11:43:42;;;;;;;4.47;2.43;;;;;;;;;;4993237;28;20870;-79
2021/11/09 11:46:12;;;;;;;4.00;2.50;;;;;;;;;;4993180;28;20432;-78
2021/11/09 11:48:57;;;;;;;5.43;2.17;;;;;;;;;;4993473;28;20385;-79
2021/11/09 11:51:23;;;;;;;5.00;2.63;;;;;;;;;;4993100;28;20432;-79
2021/11/09 11:53:54;;;;;;;6.67;2.40;;;;;;;;;;4993688;28;20369;-79
2021/11/09 11:56:20;;;;;;;5.90;2.33;;;;;;;;;;4993472;28;20382;-79
2021/11/09 11:58:46;;;;;;;5.47;2.33;;;;;;;;;;4993461;28;20411;-80
2021/11/09 12:01:12;;;;;;;3.63;1.93;;;;;;;;;;4995003;28;20434;-80
2021/11/09 12:03:39;;;;;;;8.20;2.50;;;;;;;;;;4996779;28;20390;-78
2021/11/09 12:06:17;;;;;;;3.87;1.90;;;;;;;;;;4995470;28;20478;-80
2021/11/09 12:08:47;;;;;;;5.27;2.20;;;;;;;;;;4996782;28;20381;-79
2021/11/09 12:11:26;;;;;;;3.73;1.73;;;;;;;;;;4996353;28;20541;-81
2021/11/09 12:13:56;;;;;;;8.10;2.00;;;;;;;;;;4996888;28;20709;-80
2021/11/09 12:16:41;;;;;;;8.07;2.20;;;;;;;;;;4996555;28;20411;-80
2021/11/09 12:19:07;;;;;;;6.27;2.30;;;;;;;;;;4996497;28;20502;-78
2021/11/09 12:21:36;;;;;;;3.87;1.80;;;;;;;;;;4995916;28;20575;-79
2021/11/09 12:24:13;;;;;;;4.80;2.20;;;;;;;;;;4996285;28;20417;-80
2021/11/09 12:26:44;;;;;;;6.43;2.97;;;;;;;;;;4996215;28;20441;-81
2021/11/09 12:29:30;;;;;;;4.50;2.23;;;;;;;;;;4996185;28;20385;-78
2021/11/09 12:31:56;;;;;;;7.77;2.23;;;;;;;;;;4996456;28;20779;-81
2021/11/09 12:34:41;;;;;;;5.13;1.83;;;;;;;;;;4996057;28;20899;-79
2021/11/09 12:37:20;;;;;;;2.93;1.53;;;;;;;;;;4996228;28;20389;-80
2021/11/09 12:39:46;;;;;;;3.37;2.00;;;;;;;;;;4995885;28;20405;-80
2021/11/09 12:42:12;;;;;;;6.17;2.47;;;;;;;;;;4996205;28;20385;-79
2021/11/09 12:44:38;;;;;;;5.00;2.20;;;;;;;;;;4996200;28;20412;-78
2021/11/09 12:47:11;;;;;;;4.30;1.90;;;;;;;;;;4996177;28;20479;-81
2021/11/09 12:49:39;;;;;;;6.17;1.70;;;;;;;;;;4994295;28;20438;-80
2021/11/09 12:52:06;;;;;;;5.13;2.70;;;;;;;;;;4995989;28;20425;-80
2021/11/09 12:54:33;;;;;;;8.90;2.60;;;;;;;;;;4995853;28;20550;-79
2021/11/09 12:57:04;;;;;;;4.63;2.00;;;;;;;;;;4994616;28;20763;-81
2021/11/09 13:04:44;;;;;;;4.50;2.00;;;;;;;;;;4995981;28;20423;-81
2021/11/09 13:07:34;;;;;;;3.00;1.70;;;;;;;;;;4994715;28;20637;-80
2021/11/09 13:10:06;;;;;;;4.50;2.10;;;;;;;;;;4995563;28;20772;-80
2021/11/09 13:12:33;;;;;;;3.90;1.90;;;;;;;;;;4994848;28;20516;-80
2021/11/09 13:14:59;;;;;;;5.80;2.33;;;;;;;;;;4995572;28;20389;-80
2021/11/09 13:17:37;;;;;;;6.30;1.73;;;;;;;;;;4995524;28;20877;-80
2021/11/09 13:20:14;;;;;;;4.10;1.80;;;;;;;;;;4993788;28;20487;-81
2021/11/09 13:22:51;;;;;;;6.77;1.90;;;;;;;;;;4995516;28;20748;-80
2021/11/09 13:25:17;;;;;;;3.20;1.87;;;;;;;;;;4995330;28;20385;-78
2021/11/09 13:27:46;;;;;;;5.90;1.97;;;;;;;;;;4995281;28;20388;-81
2021/11/09 13:30:17;;;;;;;4.30;2.00;;;;;;;;;;4993688;28;20800;-82
2021/11/09 13:32:44;;;;;;;3.50;1.83;;;;;;;;;;4995115;28;20602;-79
2021/11/09 13:35:36;;;;;;;6.17;1.90;;;;;;;;;;4993725;28;20419;-78
2021/11/09 13:38:38;;;;;;;3.70;1.60;;;;;;;;;;4994008;28;20404;-81
2021/11/09 13:41:07;;;;;;;8.00;2.03;;;;;;;;;;4954111;29;20527;-78
2021/11/09 13:43:36;;;;;;;3.53;2.00;;;;;;;;;;4987753;28;20472;-79
2021/11/09 13:46:14;;;;;;;4.10;1.70;;;;;;;;;;4994920;28;20435;-80
2021/11/09 13:48:42;;;;;;;4.20;2.03;;;;;;;;;;4994894;28;20752;-79
2021/11/09 13:51:13;;;;;;;5.47;1.70;;;;;;;;;;4994272;28;20754;-82
2021/11/09 13:53:41;;;;;;;5.83;2.50;;;;;;;;;;4994732;28;20462;-81
2021/11/09 13:56:13;;;;;;;5.20;1.90;;;;;;;;;;4994745;28;20410;-81
2021/11/09 13:58:40;;;;;;;3.70;1.97;;;;;;;;;;4994800;28;20410;-82
2021/11/09 14:01:10;;;;;;;7.93;2.37;;;;;;;;;;4994119;28;20450;-82
2021/11/09 14:04:01;;;;;;;3.77;2.20;;;;;;;;;;4994562;28;20417;-79
2021/11/09 14:12:19;;;;;;;5.80;1.80;;;;;;;;;;4994487;28;20415;-80
2021/11/09 14:14:58;;;;;;;5.00;1.93;;;;;;;;;;4994530;28;20406;-80
2021/11/09 14:17:34;;;;;;;3.70;1.50;;;;;;;;;;4994378;28;20420;-78
2021/11/09 14:20:15;;;;;;;4.73;2.10;;;;;;;;;;4992859;28;20444;-78
2021/11/09 14:22:42;;;;;;;7.47;2.37;;;;;;;;;;4994351;28;20411;-79
2021/11/09 14:25:09;;;;;;;6.47;2.30;;;;;;;;;;4994181;28;20480;-82
2021/11/09 14:27:39;;;;;;;6.20;2.10;;;;;;;;;;4993955;28;20444;-82
2021/11/09 14:30:07;;;;;;;3.80;2.10;;;;;;;;;;4992533;28;20420;-79
2021/11/09 14:32:35;;;;;;;3.13;1.97;;;;;;;;;;4994194;28;20381;-80
2021/11/09 14:35:05;;;;;;;8.87;2.67;;;;;;;;;;4992800;28;20473;-79
2021/11/09 14:37:37;;;;;;;8.03;2.30;;;;;;;;;;4993847;28;20460;-78
2021/11/09 14:40:08;;;;;;;3.80;2.20;;;;;;;;;;4993507;28;20438;-77
2021/11/09 14:45:12;;;;;;;5.27;2.10;;;;;;;;;;4993938;28;20948;-81
2021/11/09 14:47:44;;;;;;;4.10;2.00;;;;;;;;;;4993904;28;20490;-78
2021/11/09 14:50:33;;;;;;;6.90;2.60;;;;;;;;;;4992310;28;20457;-79
2021/11/09 14:53:20;;;;;;;5.27;2.23;;;;;;;;;;4992779;28;20446;-77
2021/11/09 14:56:01;;;;;;;5.47;2.40;;;;;;;;;;4993764;28;20414;-79
2021/11/09 14:58:32;;;;;;;8.97;2.73;;;;;;;;;;4993912;28;20380;-78
2021/11/09 15:01:05;;;;;;;10.00;3.20;;;;;;;;;;4993473;28;20437;-78
2021/11/09 15:03:36;;;;;;;7.20;2.87;;;;;;;;;;4993627;28;20409;-78
2021/11/09 15:06:12;;;;;;;4.80;2.60;;;;;;;;;;4992467;28;20489;-78
2021/11/09 15:08:52;;;;;;;7.53;3.10;;;;;;;;;;4993786;28;20792;-78
2021/11/09 15:11:26;;;;;;;6.57;3.10;;;;;;;;;;4993431;28;20443;-77
2021/11/09 15:30:14;;;;;;;3.93;2.40;;;;;;;;;;4993443;28;20466;-80
2021/11/09 15:32:40;;;;;;;4.77;3.03;;;;;;;;;;4993462;28;20409;-79
2021/11/09 15:35:18;;;;;;;6.30;2.47;;;;;;;;;;4994136;28;20497;-80
2021/11/09 15:40:12;;;;;;;5.73;3.13;;;;;;;;;;4996795;28;20438;-78
2021/11/09 15:42:40;;;;;;;6.13;3.00;;;;;;;;;;4997133;28;20950;-78
2021/11/09 15:45:06;;;;;;;6.37;2.90;;;;;;;;;;4997238;28;20443;-79
2021/11/09 15:47:32;;;;;;;5.70;2.27;;;;;;;;;;4995901;28;20462;-77
2021/11/09 15:49:58;;;;;;;4.87;2.70;;;;;;;;;;4996650;28;20987;-77
2021/11/09 15:52:24;;;;;;;4.67;2.70;;;;;;;;;;4996908;28;20434;-78
2021/11/09 15:54:50;;;;;;;6.80;3.40;;;;;;;;;;4997072;28;20410;-79
2021/11/09 15:57:17;;;;;;;5.30;3.07;;;;;;;;;;4997058;28;20490;-76
2021/11/09 15:59:43;;;;;;;7.73;3.00;;;;;;;;;;4995550;28;20493;-79
2021/11/09 16:02:10;;;;;;;5.50;3.03;;;;;;;;;;4996670;28;20429;-79
2021/11/09 16:04:40;;;;;;;5.67;2.63;;;;;;;;;;4996772;28;20827;-80
2021/11/09 16:07:06;;;;;;;8.83;3.20;;;;;;;;;;4996554;28;20648;-78
2021/11/09 16:09:32;;;;;;;3.58;2.70;;;;;;;;;;4996358;28;20785;-79
2021/11/09 16:11:58;;;;;;;6.30;2.97;;;;;;;;;;4996629;28;20165;-78
2021/11/09 16:14:24;;;;;;;4.47;2.20;;;;;;;;;;4995150;28;20425;-77
2021/11/09 16:16:50;;;;;;;5.60;2.80;;;;;;;;;;4996521;28;20421;-77
2021/11/09 16:19:17;;;;;;;6.18;3.33;;;;;;;;;;4996044;28;20422;-79
2021/11/09 16:21:43;;;;;;;4.75;2.95;;;;;;;;;;4996238;28;20282;-81
2021/11/09 16:24:12;;;;;;;5.63;3.17;;;;;;;;;;4996403;28;20176;-77
2021/11/09 16:26:38;;;;;;;4.50;2.78;;;;;;;;;;4996321;28;20744;-77
2021/11/09 16:29:04;;;;;;;9.82;2.53;;;;;;;;;;4995364;28;20644;-77
2021/11/09 16:31:30;;;;;;;5.55;3.10;;;;;;;;;;4995862;28;20211;-78
2021/11/09 16:33:58;;;;;;;8.67;6.03;;;;;;;;;;4996107;28;20176;-77
2021/11/09 16:36:26;;;;;;;11.20;7.25;;;;;;;;;;4995906;28;20419;-79
2021/11/09 16:38:58;;;;;;;11.38;5.93;;;;;;;;;;4996078;28;20532;-79
2021/11/09 16:41:28;;;;;;;9.27;5.15;;;;;;;;;;4994552;28;20199;-77
2021/11/09 16:44:00;;;;;;;8.07;4.75;;;;;;;;;;4996013;28;20183;-79
2021/11/09 16:51:46;;;;;;;18.55;9.68;;;;;;;;;;4996108;28;20597;-78
2021/11/09 16:54:35;;;;;;;24.02;14.70;;;;;;;;;;4996000;28;20562;-79
2021/11/09 17:02:49;;;;;;;14.85;10.57;;;;;;;;;;4995914;28;20249;-77
2021/11/09 18:21:11;;;;;;;11.13;5.15;;;;;;;;;;4992778;28;20289;-79
2021/11/09 18:23:40;;;;;;;11.23;4.60;;;;;;;;;;4994189;28;20183;-79
2021/11/09 18:26:06;;;;;;;9.13;4.88;;;;;;;;;;4993231;28;20293;-77
2021/11/09 18:28:33;;;;;;;7.07;4.40;;;;;;;;;;4992983;28;20605;-80
2021/11/09 18:30:59;;;;;;;9.32;4.10;;;;;;;;;;4993986;28;20298;-78
2021/11/09 18:33:25;;;;;;;5.70;4.18;;;;;;;;;;4994097;28;20538;-79
2021/11/09 18:35:52;;;;;;;7.70;3.90;;;;;;;;;;4994348;28;20195;-80
2021/11/09 18:38:18;;;;;;;5.90;4.03;;;;;;;;;;4994187;28;20899;-80
2021/11/09 18:40:45;;;;;;;13.32;5.45;;;;;;;;;;4993515;28;20214;-79
2021/11/09 18:43:14;;;;;;;6.68;4.63;;;;;;;;;;4993830;28;20316;-79
2021/11/09 18:45:42;;;;;;;6.40;4.50;;;;;;;;;;4994160;28;20542;-80
2021/11/09 18:48:08;;;;;;;14.55;6.00;;;;;;;;;;4994003;28;20183;-80
2021/11/09 18:50:35;;;;;;;19.42;10.98;;;;;;;;;;4993416;28;20199;-81
2021/11/09 18:53:01;;;;;;;24.77;13.43;;;;;;;;;;4992608;28;20176;-80
2021/11/09 18:55:28;;;;;;;28.33;17.75;;;;;;;;;;4993660;28;20172;-79